Time;durP1;ratioP1;P1;durP2;ratioP2;P2;SDS_P1;SDS_P2;PMS_P1;PMS_P2;Temp;Humidity;BMP_temperature;BMP_pressure;BME280_temperature;BME280_humidity;BME280_pressure;Samples;Min_cycle;Max_cycle;Signal;HPM_P1;HPM_P2
2023/03/24 00:00:10;;;;;;;9.13;3.03;;;11.40;99.90;;;;;;5010107;28;20034;-73
2023/03/24 00:02:40;;;;;;;6.95;3.40;;;11.40;99.90;;;;;;5010320;28;20334;-78
2023/03/24 00:05:08;;;;;;;8.02;3.78;;;11.40;99.90;;;;;;4991537;28;20033;-80
2023/03/24 00:07:37;;;;;;;9.55;2.83;;;11.40;99.90;;;;;;4992302;28;20022;-78
2023/03/24 00:10:08;;;;;;;10.80;4.03;;;11.40;99.90;;;;;;5005514;28;20037;-65
2023/03/24 00:12:37;;;;;;;11.13;3.50;;;11.50;99.90;;;;;;5007305;28;20050;-67
2023/03/24 00:15:06;;;;;;;9.20;3.40;;;11.50;99.90;;;;;;5009492;28;20522;-80
2023/03/24 00:17:34;;;;;;;8.05;3.20;;;11.50;99.90;;;;;;5011664;28;20093;-65
2023/03/24 00:20:06;;;;;;;8.40;3.28;;;11.50;99.90;;;;;;5015620;28;20033;-66
2023/03/24 00:22:32;;;;;;;13.75;3.05;;;11.50;99.90;;;;;;5016074;28;20034;-78
2023/03/24 00:24:58;;;;;;;8.18;2.83;;;11.50;99.90;;;;;;5015809;28;20033;-65
2023/03/24 00:27:24;;;;;;;9.63;3.17;;;11.50;99.90;;;;;;5014596;28;20077;-66
2023/03/24 00:29:50;;;;;;;9.40;3.80;;;11.50;99.90;;;;;;5016099;28;20030;-65
2023/03/24 00:32:16;;;;;;;11.10;3.77;;;11.50;99.90;;;;;;5007139;28;20027;-66
2023/03/24 00:34:42;;;;;;;9.43;3.60;;;11.50;99.90;;;;;;5008891;28;20038;-66
2023/03/24 00:37:08;;;;;;;10.77;3.60;;;11.50;99.90;;;;;;5008030;28;20085;-65
2023/03/24 00:39:34;;;;;;;15.90;3.72;;;11.50;99.90;;;;;;4984936;28;20034;-66
2023/03/24 00:42:02;;;;;;;11.43;3.90;;;11.50;99.90;;;;;;5013925;28;20085;-66
2023/03/24 00:44:28;;;;;;;13.48;3.83;;;11.50;99.90;;;;;;5014537;28;20029;-66
2023/03/24 00:46:56;;;;;;;9.57;3.80;;;11.50;99.90;;;;;;4982075;28;20377;-66
2023/03/24 00:49:43;;;;;;;8.52;3.50;;;11.50;99.90;;;;;;5005613;28;20030;-66
2023/03/24 00:52:13;;;;;;;9.63;3.70;;;11.50;99.90;;;;;;5007413;28;20354;-65
2023/03/24 00:54:39;;;;;;;11.68;4.10;;;11.50;99.90;;;;;;5002482;28;20461;-65
2023/03/24 00:57:06;;;;;;;9.57;3.97;;;11.50;99.90;;;;;;5009031;28;20051;-66
2023/03/24 00:59:41;;;;;;;9.07;3.67;;;11.60;99.90;;;;;;4997595;28;20046;-64
2023/03/24 01:02:12;;;;;;;8.77;3.72;;;11.60;99.90;;;;;;4998784;28;20317;-74
2023/03/24 01:04:39;;;;;;;9.45;3.70;;;11.70;99.90;;;;;;5005375;28;20036;-65
2023/03/24 01:07:06;;;;;;;;;;;11.70;99.90;;;;;;5002388;28;20334;-65
2023/03/24 01:09:35;;;;;;;10.38;3.85;;;11.70;99.90;;;;;;5007123;28;19912;-66
2023/03/24 01:12:02;;;;;;;7.05;3.13;;;11.70;99.90;;;;;;4998299;28;20434;-67
2023/03/24 01:14:31;;;;;;;7.40;3.67;;;11.70;99.90;;;;;;5005839;28;20037;-65
2023/03/24 01:16:58;;;;;;;4.72;2.95;;;11.70;99.90;;;;;;5016117;28;20026;-65
2023/03/24 01:19:24;;;;;;;7.28;3.72;;;11.70;99.90;;;;;;5001835;28;20413;-66
2023/03/24 01:21:53;;;;;;;7.78;3.72;;;11.70;99.90;;;;;;5014873;28;20038;-67
2023/03/24 01:24:20;;;;;;;8.05;3.20;;;11.70;99.90;;;;;;4985503;28;20425;-66
2023/03/24 01:26:46;;;;;;;10.23;2.97;;;11.70;99.90;;;;;;5006557;28;20081;-76
2023/03/24 01:29:11;;;;;;;6.40;3.00;;;11.70;99.90;;;;;;5012828;28;20026;-66
2023/03/24 01:31:37;;;;;;;9.13;3.57;;;11.70;99.90;;;;;;5000367;28;20436;-76
2023/03/24 01:34:03;;;;;;;8.87;3.47;;;11.70;99.90;;;;;;4990017;28;20081;-66
2023/03/24 01:36:29;;;;;;;6.88;3.22;;;11.70;99.90;;;;;;5004886;28;20049;-73
2023/03/24 01:38:57;;;;;;;6.87;3.33;;;11.70;99.90;;;;;;4996987;28;20422;-66
2023/03/24 01:41:23;;;;;;;7.05;3.40;;;11.70;99.90;;;;;;4977417;28;20026;-66
2023/03/24 01:43:49;;;;;;;9.55;3.92;;;11.70;99.90;;;;;;5011953;28;20040;-65
2023/03/24 01:46:18;;;;;;;7.23;3.47;;;11.70;99.90;;;;;;5004605;28;20392;-66
2023/03/24 01:49:05;;;;;;;6.57;3.90;;;11.70;99.90;;;;;;4983154;28;20062;-66
2023/03/24 01:51:38;;;;;;;8.18;3.45;;;11.70;99.90;;;;;;5009357;28;20073;-66
2023/03/24 01:54:16;;;;;;;10.25;3.40;;;11.70;99.90;;;;;;5000462;28;20026;-66
2023/03/24 01:56:47;;;;;;;6.30;3.13;;;11.70;99.90;;;;;;5009987;28;20435;-67
2023/03/24 01:59:20;;;;;;;6.88;3.55;;;11.70;99.90;;;;;;5011415;28;20041;-66
2023/03/24 02:01:46;;;;;;;5.95;3.75;;;11.70;99.90;;;;;;5009561;28;20030;-66
2023/03/24 02:04:13;;;;;;;10.75;4.25;;;11.70;99.90;;;;;;5004460;28;20089;-66
2023/03/24 02:06:42;;;;;;;5.68;3.65;;;11.70;99.90;;;;;;5010738;28;20048;-67
2023/03/24 02:09:10;;;;;;;6.50;3.40;;;11.80;99.90;;;;;;5014492;28;20025;-65
2023/03/24 02:11:38;;;;;;;7.40;3.80;;;11.70;99.90;;;;;;5006749;28;20050;-77
2023/03/24 02:14:05;;;;;;;6.60;4.20;;;11.70;99.90;;;;;;5005561;28;20088;-65
2023/03/24 02:16:43;;;;;;;7.95;4.22;;;11.80;99.90;;;;;;5003316;28;20384;-65
2023/03/24 02:19:37;;;;;;;7.03;3.90;;;11.70;99.90;;;;;;4999135;28;20483;-76
2023/03/24 02:22:26;;;;;;;7.55;2.95;;;11.80;99.90;;;;;;5015525;28;20591;-66
2023/03/24 02:25:24;;;;;;;8.32;2.15;;;11.70;99.90;;;;;;5009582;28;20037;-66
2023/03/24 02:28:20;;;;;;;3.85;1.48;;;11.60;99.90;;;;;;5000120;28;20112;-66
2023/03/24 02:31:20;;;;;;;1.92;1.02;;;11.40;99.90;;;;;;5012749;28;20445;-67
2023/03/24 02:34:34;;;;;;;4.50;1.10;;;11.30;99.90;;;;;;5008675;28;20026;-65
2023/03/24 02:37:26;;;;;;;0.75;0.70;;;11.20;99.90;;;;;;4942203;28;20042;-67
2023/03/24 02:40:00;;;;;;;5.53;0.70;;;11.10;99.90;;;;;;4996810;28;20314;-66
2023/03/24 02:42:36;;;;;;;3.92;0.90;;;11.10;99.90;;;;;;5003714;28;20026;-65
2023/03/24 02:45:40;;;;;;;3.13;1.23;;;11.00;99.90;;;;;;5003632;28;20497;-66
2023/03/24 02:48:19;;;;;;;1.52;0.60;;;10.90;99.90;;;;;;4999951;28;20108;-66
2023/03/24 02:51:12;;;;;;;1.52;0.95;;;10.90;99.90;;;;;;5014684;28;20037;-66
2023/03/24 02:54:11;;;;;;;6.18;0.90;;;10.90;99.90;;;;;;5002706;28;20042;-64
2023/03/24 02:56:46;;;;;;;3.00;0.70;;;10.80;99.90;;;;;;4996061;28;20022;-64
2023/03/24 02:59:21;;;;;;;4.97;0.90;;;10.80;99.90;;;;;;4989535;28;20414;-66
2023/03/24 03:01:59;;;;;;;10.68;1.52;;;10.80;99.90;;;;;;5012596;28;20037;-65
2023/03/24 03:04:32;;;;;;;3.05;1.02;;;10.70;99.90;;;;;;5003942;28;20029;-66
2023/03/24 03:07:08;;;;;;;6.78;1.40;;;10.70;99.90;;;;;;5013250;28;20040;-66
2023/03/24 03:09:37;;;;;;;6.60;1.38;;;10.60;99.90;;;;;;4993934;28;20045;-65
2023/03/24 03:12:05;;;;;;;5.45;1.13;;;10.60;99.90;;;;;;5008149;28;20042;-65
2023/03/24 03:15:08;;;;;;;2.70;1.25;;;10.50;99.90;;;;;;5009956;28;20030;-66
2023/03/24 03:17:43;;;;;;;8.57;1.08;;;10.50;99.90;;;;;;4986032;28;20327;-66
2023/03/24 03:20:15;;;;;;;2.78;1.02;;;10.40;99.90;;;;;;5009076;28;20037;-75
2023/03/24 03:22:55;;;;;;;8.10;1.25;;;10.30;99.90;;;;;;5014366;28;20014;-64
2023/03/24 03:25:27;;;;;;;7.72;1.40;;;10.30;99.90;;;;;;5012603;28;20040;-64
2023/03/24 03:27:57;;;;;;;4.82;1.10;;;10.20;99.90;;;;;;5001081;28;20041;-64
2023/03/24 03:30:28;;;;;;;9.27;1.65;;;10.20;99.90;;;;;;5005035;28;20024;-67
2023/03/24 03:33:09;;;;;;;6.15;1.15;;;10.10;99.90;;;;;;5018279;28;20126;-64
2023/03/24 03:35:41;;;;;;;8.48;1.45;;;10.00;99.90;;;;;;5002734;28;20113;-65
2023/03/24 03:38:17;;;;;;;5.97;1.45;;;9.90;99.90;;;;;;4999442;28;20089;-65
2023/03/24 03:40:58;;;;;;;3.95;1.45;;;9.90;99.90;;;;;;5011188;28;20026;-65
2023/03/24 03:43:26;;;;;;;8.88;1.38;;;9.90;99.90;;;;;;5017777;28;20456;-65
2023/03/24 03:45:52;;;;;;;3.47;1.30;;;9.80;99.90;;;;;;5013889;28;20041;-66
2023/03/24 03:48:19;;;;;;;10.85;1.67;;;9.80;99.90;;;;;;5005625;28;20487;-65
2023/03/24 03:50:45;;;;;;;14.85;1.63;;;9.80;99.90;;;;;;5012455;28;20030;-64
2023/03/24 03:53:14;;;;;;;6.03;1.33;;;9.70;99.90;;;;;;5017296;28;20026;-64
2023/03/24 03:55:40;;;;;;;8.00;1.27;;;9.60;99.90;;;;;;5004803;28;20026;-64
2023/03/24 03:58:06;;;;;;;4.90;1.15;;;9.60;99.90;;;;;;5015568;28;20044;-65
2023/03/24 04:00:35;;;;;;;13.98;1.88;;;9.60;99.90;;;;;;5013762;28;20041;-65
2023/03/24 04:03:35;;;;;;;8.07;1.50;;;9.50;99.90;;;;;;5015334;28;20038;-64
2023/03/24 04:06:21;;;;;;;5.25;1.50;;;9.50;99.90;;;;;;4998439;28;20026;-65
2023/03/24 04:09:17;;;;;;;6.88;1.38;;;9.40;99.90;;;;;;5004943;28;20417;-65
2023/03/24 04:12:07;;;;;;;9.48;1.95;;;9.50;99.90;;;;;;5016401;28;20128;-65
2023/03/24 04:15:05;;;;;;;16.08;2.22;;;9.40;99.90;;;;;;5016108;28;20033;-76
2023/03/24 04:18:01;;;;;;;11.07;2.00;;;9.50;99.90;;;;;;5007449;28;20113;-66
2023/03/24 04:20:45;;;;;;;9.50;1.52;;;9.40;99.90;;;;;;5015237;28;20120;-65
2023/03/24 04:23:25;;;;;;;13.95;1.92;;;9.40;99.90;;;;;;5014465;28;20432;-65
2023/03/24 04:26:13;;;;;;;14.40;2.50;;;9.40;99.90;;;;;;5013933;28;20073;-64
2023/03/24 04:28:51;;;;;;;6.47;1.85;;;9.40;99.90;;;;;;5015250;28;20033;-65
2023/03/24 04:31:30;;;;;;;10.10;1.95;;;9.40;99.90;;;;;;5007685;28;20070;-64
2023/03/24 04:34:02;;;;;;;8.90;2.33;;;9.30;99.90;;;;;;5001885;28;20112;-66
2023/03/24 04:36:42;;;;;;;11.30;1.80;;;9.30;99.90;;;;;;5001041;28;20153;-65
2023/03/24 04:39:17;;;;;;;12.30;2.50;;;9.30;99.90;;;;;;5006515;28;20030;-79
2023/03/24 04:41:46;;;;;;;14.25;1.90;;;9.30;99.90;;;;;;5000677;28;20059;-65
2023/03/24 04:44:16;;;;;;;14.55;1.95;;;9.40;99.90;;;;;;5001885;28;20418;-65
2023/03/24 04:46:43;;;;;;;13.18;2.35;;;9.40;99.90;;;;;;5006265;28;20026;-65
2023/03/24 04:49:09;;;;;;;11.57;2.10;;;9.40;99.90;;;;;;4989644;28;20026;-65
2023/03/24 04:51:35;;;;;;;14.50;2.43;;;9.40;99.90;;;;;;5007700;28;20037;-64
2023/03/24 04:54:01;;;;;;;5.75;1.75;;;9.40;99.90;;;;;;5005300;28;20034;-64
2023/03/24 04:56:49;;;;;;;20.13;2.60;;;9.40;99.90;;;;;;5005543;28;20101;-64
2023/03/24 04:59:16;;;;;;;13.50;2.40;;;9.40;99.90;;;;;;4996893;28;20025;-65
2023/03/24 05:01:48;;;;;;;;;;;9.40;99.90;;;;;;5006027;28;20027;-65
2023/03/24 05:04:16;;;;;;;19.15;2.38;;;9.40;99.90;;;;;;4996442;28;19952;-63
2023/03/24 05:06:42;;;;;;;13.70;2.03;;;9.40;99.90;;;;;;4996790;28;20053;-64
2023/03/24 05:09:08;;;;;;;14.80;2.03;;;9.40;99.90;;;;;;5005278;28;20068;-65
2023/03/24 05:11:34;;;;;;;16.63;3.10;;;9.30;99.90;;;;;;4995767;28;20326;-65
2023/03/24 05:13:59;;;;;;;14.70;2.83;;;9.30;99.90;;;;;;4996648;28;20077;-64
2023/03/24 05:16:25;;;;;;;13.03;2.57;;;9.30;99.90;;;;;;4997710;28;20397;-81
2023/03/24 05:18:51;;;;;;;17.30;2.93;;;9.20;99.90;;;;;;5008802;28;20023;-65
2023/03/24 05:21:19;;;;;;;18.77;2.70;;;9.20;99.90;;;;;;5010191;28;20070;-64
2023/03/24 05:23:45;;;;;;;13.27;2.38;;;9.20;99.90;;;;;;4996053;28;20489;-64
2023/03/24 05:26:11;;;;;;;10.17;2.23;;;9.10;99.90;;;;;;4996585;28;20149;-65
2023/03/24 05:28:37;;;;;;;20.27;2.70;;;9.10;99.90;;;;;;4992734;28;20030;-64
2023/03/24 05:31:02;;;;;;;15.40;2.67;;;9.10;99.90;;;;;;5002687;28;20037;-63
2023/03/24 05:33:28;;;;;;;14.07;2.53;;;9.10;99.90;;;;;;4997542;28;20026;-64
2023/03/24 05:35:54;;;;;;;11.47;2.87;;;9.00;99.90;;;;;;5000824;28;20037;-64
2023/03/24 05:38:20;;;;;;;22.93;3.60;;;9.00;99.90;;;;;;5011464;28;20038;-65
2023/03/24 05:40:46;;;;;;;18.87;2.17;;;9.00;99.90;;;;;;4995814;28;20109;-64
2023/03/24 05:43:11;;;;;;;19.20;2.83;;;9.00;99.90;;;;;;4995828;28;20329;-66
2023/03/24 05:45:38;;;;;;;16.47;2.70;;;8.90;99.90;;;;;;4998029;28;20026;-64
2023/03/24 05:48:04;;;;;;;16.45;2.58;;;8.90;99.90;;;;;;5008008;28;20488;-65
2023/03/24 05:50:30;;;;;;;22.67;2.95;;;9.00;99.90;;;;;;5008555;28;20117;-64
2023/03/24 05:52:56;;;;;;;22.42;3.55;;;9.00;99.90;;;;;;5014655;28;20018;-65
2023/03/24 05:55:22;;;;;;;24.00;3.07;;;9.00;99.90;;;;;;5014375;28;20026;-65
2023/03/24 05:57:49;;;;;;;26.15;3.05;;;9.10;99.90;;;;;;5013843;28;20073;-65
2023/03/24 06:00:16;;;;;;;15.73;3.33;;;9.20;99.90;;;;;;5003069;28;20030;-75
2023/03/24 06:02:43;;;;;;;19.48;3.08;;;9.20;99.90;;;;;;5006604;28;20491;-64
2023/03/24 06:05:10;;;;;;;17.52;3.35;;;9.20;99.90;;;;;;5004736;28;20088;-65
2023/03/24 06:07:39;;;;;;;21.80;3.08;;;9.20;99.90;;;;;;5001347;28;20097;-64
2023/03/24 06:10:06;;;;;;;28.38;4.18;;;9.30;99.90;;;;;;5002251;28;20029;-64
2023/03/24 06:12:32;;;;;;;31.27;3.30;;;9.30;99.90;;;;;;5012218;28;20097;-64
2023/03/24 06:14:59;;;;;;;9.95;2.72;;;9.30;99.90;;;;;;5012780;28;20483;-64
2023/03/24 06:17:27;;;;;;;;;;;9.40;99.90;;;;;;5015576;28;20110;-64
2023/03/24 06:20:01;;;;;;;17.00;3.97;;;9.50;99.90;;;;;;5008031;28;19910;-65
2023/03/24 06:22:28;;;;;;;23.13;3.83;;;9.50;99.90;;;;;;5001015;28;20318;-64
2023/03/24 06:24:57;;;;;;;26.35;3.47;;;9.50;99.90;;;;;;5000214;28;20030;-65
2023/03/24 06:27:28;;;;;;;9.73;2.85;;;9.60;99.90;;;;;;4999329;28;20340;-65
2023/03/24 06:29:56;;;;;;;22.30;3.63;;;9.60;99.90;;;;;;5003200;28;20048;-65
2023/03/24 06:32:22;;;;;;;16.35;2.50;;;9.60;99.90;;;;;;5002909;28;20022;-66
2023/03/24 06:34:49;;;;;;;31.90;4.22;;;9.60;99.90;;;;;;4985296;28;20039;-64
2023/03/24 06:37:15;;;;;;;;;;;9.70;99.90;;;;;;4996911;28;20435;-65
2023/03/24 06:39:41;;;;;;;26.30;3.70;;;9.70;99.90;;;;;;4993323;28;19914;-65
2023/03/24 06:42:07;;;;;;;20.63;3.30;;;9.70;99.90;;;;;;5006742;28;20048;-64
2023/03/24 06:44:32;;;;;;;23.90;3.33;;;9.80;99.90;;;;;;4997023;28;20034;-65
2023/03/24 06:46:58;;;;;;;23.50;3.43;;;9.80;99.90;;;;;;4999115;28;20053;-64
2023/03/24 06:49:24;;;;;;;17.37;3.60;;;9.80;99.90;;;;;;5002920;28;20298;-65
2023/03/24 06:51:50;;;;;;;28.80;2.53;;;9.80;99.90;;;;;;5004512;28;20022;-65
2023/03/24 06:54:16;;;;;;;24.67;2.88;;;9.80;99.90;;;;;;4997610;28;20025;-63
2023/03/24 06:56:42;;;;;;;14.30;2.10;;;9.90;99.90;;;;;;5001871;28;20105;-65
2023/03/24 06:59:09;;;;;;;14.90;3.17;;;9.90;99.90;;;;;;5002549;28;20117;-65
2023/03/24 07:01:36;;;;;;;21.70;3.65;;;9.90;99.90;;;;;;5010554;28;20034;-64
2023/03/24 07:04:02;;;;;;;22.52;3.10;;;10.00;99.90;;;;;;5010743;28;20105;-64
2023/03/24 07:06:32;;;;;;;16.77;3.40;;;10.00;99.90;;;;;;5012117;28;20022;-79
2023/03/24 07:08:58;;;;;;;22.27;3.25;;;10.00;99.90;;;;;;5008051;28;20683;-64
2023/03/24 07:11:24;;;;;;;29.27;3.35;;;10.10;99.90;;;;;;5009750;28;20042;-65
2023/03/24 07:13:49;;;;;;;20.70;3.17;;;10.10;99.90;;;;;;5003784;28;20448;-64
2023/03/24 07:16:15;;;;;;;13.00;2.50;;;10.20;99.90;;;;;;5007150;28;20041;-64
2023/03/24 07:18:41;;;;;;;22.87;3.43;;;10.20;99.90;;;;;;5003842;28;20030;-65
2023/03/24 07:21:07;;;;;;;18.83;2.77;;;10.20;99.90;;;;;;5008621;28;20126;-64
2023/03/24 07:23:33;;;;;;;20.20;3.47;;;10.30;99.90;;;;;;5007792;28;20030;-66
2023/03/24 07:25:59;;;;;;;27.33;3.10;;;10.30;99.90;;;;;;5008428;28;20117;-64
2023/03/24 07:28:25;;;;;;;15.90;2.50;;;10.30;99.90;;;;;;4989835;28;20021;-64
2023/03/24 07:30:51;;;;;;;17.57;2.57;;;10.30;99.90;;;;;;5002974;28;20274;-65
2023/03/24 07:33:16;;;;;;;20.23;2.57;;;10.40;99.90;;;;;;5006271;28;20029;-64
2023/03/24 07:35:43;;;;;;;22.67;2.73;;;10.40;99.90;;;;;;5006424;28;20030;-64
2023/03/24 07:38:10;;;;;;;18.17;3.60;;;10.40;99.90;;;;;;4999734;28;20077;-64
2023/03/24 07:40:36;;;;;;;28.17;3.03;;;10.50;99.90;;;;;;5011238;28;20261;-65
2023/03/24 07:43:06;;;;;;;21.20;2.43;;;10.70;99.90;;;;;;5016444;28;20030;-64
2023/03/24 07:45:32;;;;;;;21.63;2.80;;;11.60;99.90;;;;;;5011255;28;20037;-66
2023/03/24 07:48:00;;;;;;;25.60;3.35;;;11.90;99.90;;;;;;4999722;28;20037;-65
2023/03/24 07:50:30;;;;;;;14.45;2.45;;;12.10;99.90;;;;;;4983275;28;20349;-64
2023/03/24 07:52:56;;;;;;;16.15;2.63;;;12.40;99.90;;;;;;4997075;28;20061;-64
2023/03/24 07:55:22;;;;;;;21.77;2.70;;;12.40;99.90;;;;;;4998917;28;20476;-64
2023/03/24 07:57:48;;;;;;;24.07;3.23;;;12.30;99.90;;;;;;4984932;28;20038;-79
2023/03/24 08:00:16;;;;;;;;;;;12.60;99.90;;;;;;4994541;28;20030;-65
2023/03/24 08:02:47;;;;;;;19.13;3.05;;;12.60;99.90;;;;;;4998874;28;20260;-66
2023/03/24 08:05:14;;;;;;;18.90;2.72;;;12.30;99.90;;;;;;4997442;28;20085;-65
2023/03/24 08:07:43;;;;;;;;;;;12.10;99.90;;;;;;5000343;28;20347;-65
2023/03/24 08:10:11;;;;;;;18.25;3.20;;;11.90;99.90;;;;;;4998885;28;19944;-65
2023/03/24 08:12:37;;;;;;;21.45;2.92;;;12.10;99.90;;;;;;4997872;28;20046;-65
2023/03/24 08:15:05;;;;;;;11.65;2.90;;;12.40;99.90;;;;;;4998324;28;20318;-65
2023/03/24 08:17:31;;;;;;;16.08;3.38;;;12.60;99.90;;;;;;4998898;28;20038;-64
2023/03/24 08:19:57;;;;;;;18.75;3.42;;;12.40;99.90;;;;;;4997484;28;20049;-64
2023/03/24 08:22:22;;;;;;;15.70;2.70;;;12.40;99.90;;;;;;4997208;28;20042;-66
2023/03/24 08:24:48;;;;;;;13.30;2.53;;;12.90;99.90;;;;;;5004602;28;20381;-65
2023/03/24 08:27:15;;;;;;;21.20;4.23;;;13.20;99.90;;;;;;5015851;28;20056;-65
2023/03/24 08:29:41;;;;;;;21.52;3.38;;;13.90;99.90;;;;;;5015975;28;20117;-65
2023/03/24 08:32:07;;;;;;;13.80;3.05;;;14.00;99.90;;;;;;5020161;28;20104;-66
2023/03/24 08:34:33;;;;;;;12.23;2.53;;;14.20;99.90;;;;;;5007641;28;20129;-65
2023/03/24 08:36:59;;;;;;;17.27;2.80;;;13.90;99.90;;;;;;5002725;28;20034;-65
2023/03/24 08:39:24;;;;;;;14.57;2.57;;;13.50;99.90;;;;;;4997757;28;20022;-65
2023/03/24 08:41:50;;;;;;;22.07;3.47;;;13.20;99.90;;;;;;4979165;28;20042;-65
2023/03/24 08:44:16;;;;;;;15.87;2.47;;;13.60;99.90;;;;;;4993038;28;20081;-65
2023/03/24 08:46:42;;;;;;;21.47;2.80;;;13.90;99.90;;;;;;5006040;28;20022;-66
2023/03/24 08:49:07;;;;;;;17.73;2.17;;;13.40;99.90;;;;;;5001792;28;20040;-63
2023/03/24 08:51:33;;;;;;;27.17;3.33;;;13.00;99.90;;;;;;5003272;28;20029;-63
2023/03/24 08:54:00;;;;;;;14.98;1.67;;;12.80;99.90;;;;;;5012310;28;20057;-76
2023/03/24 08:56:26;;;;;;;12.95;2.25;;;13.30;99.90;;;;;;5013162;28;20037;-64
2023/03/24 08:58:52;;;;;;;20.50;2.90;;;14.40;99.90;;;;;;4959705;28;20042;-65
2023/03/24 09:01:19;;;;;;;13.00;2.53;;;15.20;99.90;;;;;;5007055;28;20817;-64
2023/03/24 09:03:45;;;;;;;8.85;1.80;;;15.40;99.90;;;;;;5007671;28;20041;-64
2023/03/24 09:06:11;;;;;;;18.48;2.13;;;15.60;99.90;;;;;;5011595;28;20034;-65
2023/03/24 09:08:37;;;;;;;13.10;2.63;;;15.60;99.90;;;;;;4994424;28;20189;-65
2023/03/24 09:11:04;;;;;;;20.63;2.47;;;15.00;99.90;;;;;;5005848;28;20132;-63
2023/03/24 09:13:30;;;;;;;21.55;2.53;;;14.40;99.90;;;;;;4967303;28;20083;-69
2023/03/24 09:16:01;;;;;;;14.23;2.37;;;13.90;99.90;;;;;;5000123;28;20508;-64
2023/03/24 09:18:28;;;;;;;15.43;2.38;;;13.40;99.90;;;;;;5009800;28;20290;-64
2023/03/24 09:20:54;;;;;;;8.60;2.35;;;13.10;99.90;;;;;;5002385;28;20048;-65
2023/03/24 09:23:20;;;;;;;13.87;2.47;;;12.90;99.90;;;;;;5010409;28;20034;-65
2023/03/24 09:25:55;;;;;;;;;;;13.20;99.90;;;;;;5006636;28;20034;-65
2023/03/24 09:28:21;;;;;;;21.60;3.00;;;13.70;99.90;;;;;;4999746;28;19914;-64
2023/03/24 09:30:47;;;;;;;13.77;3.25;;;14.40;99.90;;;;;;5000965;28;20025;-63
2023/03/24 09:33:13;;;;;;;14.90;2.13;;;14.70;99.90;;;;;;4998305;28;20351;-76
2023/03/24 09:35:39;;;;;;;13.73;1.90;;;14.60;99.90;;;;;;4996077;28;20018;-65
2023/03/24 09:38:05;;;;;;;11.50;2.03;;;14.60;99.90;;;;;;4996531;28;20410;-64
2023/03/24 09:40:36;;;;;;;13.03;2.63;;;14.70;99.90;;;;;;4995382;28;20040;-65
2023/03/24 09:43:20;;;;;;;12.48;2.35;;;15.00;99.90;;;;;;4995723;28;20022;-65
2023/03/24 09:45:58;;;;;;;15.45;2.53;;;15.30;99.90;;;;;;4997920;28;20025;-79
2023/03/24 09:48:34;;;;;;;11.85;2.03;;;15.50;99.90;;;;;;4997415;28;20027;-64
2023/03/24 09:51:05;;;;;;;12.07;2.45;;;15.70;99.90;;;;;;4998753;28;20030;-64
2023/03/24 09:53:50;;;;;;;12.82;2.40;;;15.80;99.90;;;;;;4995809;28;20030;-65
2023/03/24 09:56:19;;;;;;;7.47;1.73;;;15.60;99.90;;;;;;4997344;28;20464;-65
2023/03/24 09:59:08;;;;;;;10.43;2.10;;;15.60;99.90;;;;;;5006887;28;20017;-65
2023/03/24 10:01:35;;;;;;;12.23;2.25;;;15.00;99.90;;;;;;4984655;28;20084;-64
2023/03/24 10:04:01;;;;;;;13.00;2.33;;;14.80;99.90;;;;;;5008533;28;20038;-66
2023/03/24 10:06:51;;;;;;;17.63;2.45;;;14.50;99.90;;;;;;5010827;28;20030;-63
2023/03/24 10:09:27;;;;;;;16.05;2.47;;;14.60;99.90;;;;;;4984033;28;20112;-77
2023/03/24 10:12:14;;;;;;;17.67;3.17;;;15.00;99.90;;;;;;5008596;28;20050;-64
2023/03/24 10:14:49;;;;;;;9.32;1.77;;;15.20;99.90;;;;;;5001035;28;20038;-64
2023/03/24 10:17:51;;;;;;;17.33;2.47;;;15.30;99.90;;;;;;4999298;28;20029;-65
2023/03/24 10:20:37;;;;;;;12.27;2.40;;;15.40;99.90;;;;;;5008385;28;20080;-65
2023/03/24 10:23:14;;;;;;;11.98;2.05;;;15.40;99.90;;;;;;5007572;28;20428;-65
2023/03/24 10:25:48;;;;;;;15.98;2.58;;;15.40;99.90;;;;;;5002503;28;20034;-65
2023/03/24 10:28:54;;;;;;;21.23;2.40;;;15.30;99.90;;;;;;4998797;28;20033;-65
2023/03/24 10:31:30;;;;;;;17.35;2.17;;;15.40;99.90;;;;;;4993160;28;20030;-64
2023/03/24 10:33:56;;;;;;;12.73;1.33;;;15.50;99.90;;;;;;5001783;28;20032;-65
2023/03/24 10:36:23;;;;;;;14.43;2.38;;;15.70;99.90;;;;;;4999808;28;20024;-64
2023/03/24 10:38:50;;;;;;;9.68;2.38;;;16.10;99.90;;;;;;4993954;28;20038;-64
2023/03/24 10:41:21;;;;;;;9.10;2.08;;;16.20;99.90;;;;;;4994270;28;20425;-65
2023/03/24 10:43:50;;;;;;;12.85;2.17;;;16.20;99.90;;;;;;5005692;28;20031;-65
2023/03/24 10:46:23;;;;;;;13.30;3.28;;;16.00;99.90;;;;;;4996387;28;20332;-65
2023/03/24 10:48:53;;;;;;;17.30;2.20;;;15.60;99.90;;;;;;4997719;28;20018;-65
2023/03/24 10:51:27;;;;;;;12.90;2.70;;;15.40;99.90;;;;;;4996751;28;20081;-66
2023/03/24 10:54:18;;;;;;;14.63;2.53;;;15.20;99.90;;;;;;4995853;28;20031;-65
2023/03/24 10:57:05;;;;;;;19.02;1.90;;;14.60;99.90;;;;;;5007743;28;20026;-64
2023/03/24 10:59:49;;;;;;;11.45;2.30;;;14.40;99.90;;;;;;4998631;28;20049;-66
2023/03/24 11:02:24;;;;;;;12.68;2.33;;;14.20;99.90;;;;;;4993567;28;20421;-65
2023/03/24 11:04:58;;;;;;;8.13;1.95;;;14.40;99.90;;;;;;4997105;28;20076;-64
2023/03/24 11:07:37;;;;;;;5.18;1.92;;;14.50;99.90;;;;;;5002405;28;20033;-65
2023/03/24 11:10:09;;;;;;;11.93;2.25;;;14.80;99.90;;;;;;4998038;28;20026;-65
2023/03/24 11:12:40;;;;;;;18.05;2.00;;;14.90;99.90;;;;;;5007552;28;20472;-76
2023/03/24 11:15:17;;;;;;;8.90;1.98;;;14.90;99.90;;;;;;4985052;28;20048;-65
2023/03/24 11:17:51;;;;;;;9.70;1.90;;;14.80;99.90;;;;;;4993928;28;20134;-65
2023/03/24 11:20:32;;;;;;;17.25;1.73;;;14.90;99.90;;;;;;4986282;28;20084;-65
2023/03/24 11:23:04;;;;;;;8.63;2.00;;;14.80;99.90;;;;;;5004903;28;20337;-65
2023/03/24 11:25:34;;;;;;;11.02;1.90;;;15.00;99.90;;;;;;5009458;28;20022;-64
2023/03/24 11:28:27;;;;;;;9.18;1.55;;;15.00;99.90;;;;;;5005904;28;20385;-66
2023/03/24 11:30:54;;;;;;;18.05;1.77;;;15.00;99.90;;;;;;4999308;28;20037;-75
2023/03/24 11:33:22;;;;;;;;;;;14.80;99.90;;;;;;5001177;28;20471;-75
2023/03/24 11:35:48;;;;;;;13.57;2.42;;;14.60;99.90;;;;;;4996036;28;19917;-65
2023/03/24 11:38:30;;;;;;;16.90;2.13;;;14.80;99.90;;;;;;4998448;28;20516;-65
2023/03/24 11:41:03;;;;;;;8.68;2.15;;;14.90;99.90;;;;;;4999754;28;20022;-65
2023/03/24 11:43:29;;;;;;;12.05;2.03;;;15.00;99.90;;;;;;4990760;28;20026;-64
2023/03/24 11:46:15;;;;;;;14.83;2.70;;;15.10;99.90;;;;;;5011648;28;20026;-65
2023/03/24 11:48:51;;;;;;;14.63;2.20;;;14.90;99.90;;;;;;5007237;28;20025;-64
2023/03/24 11:51:37;;;;;;;11.23;1.50;;;14.70;99.90;;;;;;5003168;28;20476;-65
2023/03/24 11:54:08;;;;;;;17.55;3.10;;;14.80;99.90;;;;;;4997516;28;20033;-65
2023/03/24 11:56:45;;;;;;;9.10;1.77;;;14.70;99.90;;;;;;5004225;28;20049;-65
2023/03/24 11:59:10;;;;;;;12.52;1.75;;;14.50;99.90;;;;;;5009328;28;20365;-65
2023/03/24 12:01:41;;;;;;;19.50;2.47;;;14.70;99.90;;;;;;5007846;28;20034;-65
2023/03/24 12:04:48;;;;;;;9.20;1.85;;;14.80;99.90;;;;;;5004775;28;20317;-64
2023/03/24 12:07:38;;;;;;;7.25;1.50;;;15.20;99.90;;;;;;4950408;29;20070;-64
2023/03/24 12:10:26;;;;;;;10.38;1.15;;;15.10;99.90;;;;;;5004010;28;20030;-66
2023/03/24 12:13:36;;;;;;;7.72;1.50;;;14.60;99.90;;;;;;4997120;28;20125;-65
2023/03/24 12:16:24;;;;;;;10.48;2.42;;;14.20;99.90;;;;;;4995001;28;20381;-66
2023/03/24 12:19:25;;;;;;;6.70;1.52;;;14.00;99.90;;;;;;5008350;28;20412;-64
2023/03/24 12:21:54;;;;;;;9.27;1.55;;;13.80;99.90;;;;;;4980508;28;20059;-64
2023/03/24 12:24:43;;;;;;;6.45;1.30;;;13.60;99.90;;;;;;5005602;28;20031;-64
2023/03/24 12:27:54;;;;;;;7.47;1.33;;;13.40;99.90;;;;;;5006070;28;20030;-64
2023/03/24 12:30:39;;;;;;;11.55;1.30;;;13.40;99.90;;;;;;4975151;28;20160;-65
2023/03/24 12:33:17;;;;;;;6.25;1.15;;;13.50;99.90;;;;;;5003887;28;20022;-75
2023/03/24 12:36:19;;;;;;;5.97;1.70;;;13.50;99.90;;;;;;4986288;28;20046;-64
2023/03/24 12:38:52;;;;;;;9.90;1.52;;;13.50;99.90;;;;;;5005276;28;20026;-66
2023/03/24 12:41:43;;;;;;;7.28;1.55;;;13.80;99.90;;;;;;4990416;28;20105;-65
2023/03/24 12:44:28;;;;;;;8.20;1.48;;;14.00;99.90;;;;;;5003455;28;20093;-77
2023/03/24 12:47:14;;;;;;;4.93;1.08;;;14.30;99.90;;;;;;5002233;28;20030;-72
2023/03/24 12:49:49;;;;;;;;;;;14.20;99.90;;;;;;4997199;28;20436;-63
2023/03/24 12:52:33;;;;;;;12.55;1.92;;;14.10;99.90;;;;;;4996696;28;19963;-74
2023/03/24 12:55:19;;;;;;;11.88;1.98;;;14.50;99.90;;;;;;5010474;28;20105;-65
2023/03/24 12:57:53;;;;;;;13.53;1.47;;;14.90;99.90;;;;;;5013654;28;20030;-77
2023/03/24 13:00:26;;;;;;;12.65;2.05;;;14.90;99.90;;;;;;5006017;28;20065;-65
2023/03/24 13:02:56;;;;;;;11.65;1.75;;;14.70;99.90;;;;;;4997417;28;20030;-64
2023/03/24 13:05:30;;;;;;;12.95;2.05;;;14.50;99.90;;;;;;5011874;28;20088;-65
2023/03/24 13:08:01;;;;;;;10.35;1.80;;;14.50;99.90;;;;;;4999024;28;20037;-64
2023/03/24 13:10:29;;;;;;;9.13;1.35;;;14.70;99.90;;;;;;5012189;28;20045;-75
2023/03/24 13:13:24;;;;;;;11.38;2.03;;;14.30;99.90;;;;;;4997444;28;20077;-65